Time;durP1;ratioP1;P1;durP2;ratioP2;P2;SDS_P1;SDS_P2;PMS_P1;PMS_P2;Temp;Humidity;BMP_temperature;BMP_pressure;BME280_temperature;BME280_humidity;BME280_pressure;Samples;Min_cycle;Max_cycle;Signal;HPM_P1;HPM_P2
2022/06/13 00:12:56;;;;;;;14.50;5.18;;;12.60;99.90;;;;;;6338100;22;20041;-86
2022/06/13 00:16:10;;;;;;;15.75;5.20;;;12.60;99.90;;;;;;6310931;22;20025;-86
2022/06/13 00:43:20;;;;;;;11.00;4.53;;;12.80;99.90;;;;;;6322529;22;20040;31
2022/06/13 00:46:32;;;;;;;13.40;4.28;;;12.70;99.90;;;;;;6271577;22;20450;-86
2022/06/13 01:19:34;;;;;;;16.92;4.97;;;12.80;99.90;;;;;;6306304;22;20022;-86
2022/06/13 01:41:53;;;;;;;17.83;5.35;;;13.00;99.90;;;;;;6304957;22;20054;-86
2022/06/13 09:12:38;;;;;;;;;;;;;;;;;;;;;
2022/06/13 11:43:50;;;;;;;6.97;1.80;;;16.70;99.90;;;;;;6298835;22;20445;-92
2022/06/13 14:06:03;;;;;;;6.97;1.90;;;18.60;99.90;;;;;;6372473;22;20024;-91
2022/06/13 14:35:11;;;;;;;7.90;1.67;;;20.40;99.90;;;;;;6368676;22;20037;-90
2022/06/13 14:37:05;;;;;;;;;;;;;;;;;;;;;
2022/06/13 15:00:25;;;;;;;7.85;1.83;;;21.30;98.70;;;;;;6371190;22;20033;-89
2022/06/13 15:03:17;;;;;;;6.72;1.88;;;21.10;98.80;;;;;;6380000;22;20050;-88
2022/06/13 15:08:59;;;;;;;9.25;2.00;;;20.40;99.90;;;;;;6368587;22;20018;-90
2022/06/13 15:12:15;;;;;;;6.80;1.73;;;20.50;99.90;;;;;;6374461;22;20015;-89
2022/06/13 15:15:17;;;;;;;10.13;1.90;;;20.20;99.20;;;;;;6191752;23;20107;-91
2022/06/13 15:18:28;;;;;;;7.80;1.80;;;20.00;99.90;;;;;;6078884;23;20030;-92
2022/06/13 15:21:26;;;;;;;7.85;1.80;;;20.00;99.60;;;;;;6079779;23;20034;-91
2022/06/13 15:24:27;;;;;;;6.75;1.75;;;20.20;99.80;;;;;;6198818;22;20015;-91
2022/06/13 15:27:56;;;;;;;6.68;1.70;;;20.10;99.60;;;;;;6280744;22;20019;-89
2022/06/13 15:31:00;;;;;;;8.02;1.80;;;19.70;99.90;;;;;;6093287;23;20041;-91
2022/06/13 15:33:42;;;;;;;6.53;1.67;;;19.60;99.90;;;;;;6094648;23;20441;-91
2022/06/13 15:36:30;;;;;;;8.00;1.90;;;19.20;99.90;;;;;;6093964;23;20022;-88
2022/06/13 15:38:55;;;;;;;8.77;2.00;;;18.90;99.60;;;;;;6069615;23;20018;-90
2022/06/13 15:41:39;;;;;;;6.75;1.70;;;19.10;99.90;;;;;;6114624;23;20016;-92
2022/06/13 15:44:15;;;;;;;5.13;1.65;;;19.50;99.80;;;;;;6239627;23;20111;-88
2022/06/13 15:47:05;;;;;;;7.93;1.90;;;19.70;99.90;;;;;;6217163;23;20023;-89
2022/06/13 15:49:45;;;;;;;6.70;1.67;;;19.80;99.90;;;;;;6217409;23;20115;-89
2022/06/13 16:13:56;;;;;;;6.05;1.80;;;17.70;99.90;;;;;;6177771;22;20025;-91
2022/06/13 17:02:43;;;;;;;6.78;1.75;;;20.00;97.60;;;;;;6211484;23;20385;-89
2022/06/13 17:05:36;;;;;;;7.90;2.03;;;19.40;98.20;;;;;;6152748;23;20027;-90
2022/06/13 17:12:18;;;;;;;7.55;1.85;;;18.90;99.70;;;;;;5992641;23;20029;-90
2022/06/13 17:40:44;;;;;;;6.63;1.77;;;18.20;99.90;;;;;;6337536;22;20081;-90
2022/06/13 17:43:14;;;;;;;6.20;2.10;;;17.90;99.90;;;;;;6310333;22;20015;-89
2022/06/13 17:59:27;;;;;;;6.65;2.03;;;17.60;99.90;;;;;;6330128;22;20378;-89
2022/06/13 18:05:29;;;;;;;8.55;2.10;;;17.50;99.90;;;;;;6339440;22;20033;-88
2022/06/13 18:11:09;;;;;;;;;;;;;;;;;;;;;
2022/06/13 18:14:37;;;;;;;10.15;2.00;;;17.40;99.90;;;;;;6303576;22;20019;-89
2022/06/13 18:17:20;;;;;;;9.13;2.10;;;17.10;99.90;;;;;;6187613;23;20020;-90
2022/06/13 18:20:13;;;;;;;11.15;2.15;;;17.30;99.90;;;;;;6215062;23;20024;-90
2022/06/13 18:22:39;;;;;;;9.55;2.20;;;17.60;99.90;;;;;;6212776;23;20033;-90
2022/06/13 18:25:26;;;;;;;8.10;1.83;;;18.00;99.90;;;;;;6212561;23;20023;-89
2022/06/13 18:27:55;;;;;;;10.60;2.30;;;17.30;99.90;;;;;;6210632;23;20020;-88
2022/06/13 18:30:23;;;;;;;11.55;2.35;;;17.10;99.90;;;;;;6211476;23;20082;-90
2022/06/13 18:33:02;;;;;;;6.93;1.85;;;17.10;99.90;;;;;;6330142;22;20050;-89
2022/06/13 18:36:15;;;;;;;7.63;2.15;;;17.90;99.90;;;;;;6338092;22;20433;-90
2022/06/13 18:39:29;;;;;;;7.75;1.95;;;17.20;99.90;;;;;;6339022;22;20023;-89
2022/06/13 18:42:20;;;;;;;7.38;2.00;;;16.70;99.90;;;;;;6310282;22;20014;-88
2022/06/13 18:44:50;;;;;;;9.77;2.50;;;16.70;99.90;;;;;;6311333;22;20011;-88
2022/06/13 18:47:23;;;;;;;9.55;2.10;;;17.20;99.90;;;;;;6310431;22;20089;-90
2022/06/13 18:50:25;;;;;;;6.40;1.92;;;16.30;99.90;;;;;;6267651;22;20010;-89
2022/06/13 18:53:06;;;;;;;9.82;2.22;;;16.50;99.90;;;;;;6311003;22;20010;-89
2022/06/13 18:56:24;;;;;;;9.40;2.10;;;16.30;99.90;;;;;;6310080;22;20014;-89
2022/06/13 19:57:18;;;;;;;13.57;2.40;;;14.50;99.90;;;;;;6276644;22;20085;-90
2022/06/13 19:59:47;;;;;;;8.98;2.35;;;15.40;99.90;;;;;;6248914;22;20023;-90
2022/06/13 20:02:44;;;;;;;10.85;2.50;;;14.30;99.90;;;;;;6249483;22;20019;-90
2022/06/13 20:09:50;;;;;;;12.48;2.65;;;14.40;99.90;;;;;;6275969;22;20065;-91
2022/06/13 20:15:50;;;;;;;10.25;2.10;;;14.10;99.90;;;;;;6262488;22;20344;-89
2022/06/13 20:33:31;;;;;;;10.40;2.28;;;13.60;99.90;;;;;;6370465;22;20098;-87
2022/06/13 21:04:10;;;;;;;11.18;2.60;;;12.90;99.90;;;;;;6305586;22;20390;-89
2022/06/13 21:07:41;;;;;;;10.30;2.40;;;12.80;99.90;;;;;;6282559;22;20022;-87
2022/06/13 21:10:33;;;;;;;12.05;2.53;;;12.70;99.90;;;;;;6276673;22;20102;-88
2022/06/13 21:13:38;;;;;;;13.90;3.05;;;12.50;99.90;;;;;;6277529;22;20495;-87
2022/06/13 21:16:16;;;;;;;;;;;12.50;99.90;;;;;;6301504;22;20015;-88
2022/06/13 21:18:50;;;;;;;8.85;2.50;;;12.30;99.90;;;;;;6277655;22;20014;-88
2022/06/13 21:21:28;;;;;;;11.93;3.67;;;11.80;99.90;;;;;;6305038;22;20083;-86
2022/06/13 21:24:49;;;;;;;11.15;2.70;;;12.10;99.90;;;;;;6277472;22;20077;-87
2022/06/13 21:31:29;;;;;;;12.25;2.90;;;12.20;99.90;;;;;;6334917;22;20700;-87
2022/06/13 21:34:38;;;;;;;11.55;2.67;;;11.50;99.90;;;;;;6336537;22;20050;-87
2022/06/13 21:37:16;;;;;;;10.52;2.78;;;11.60;99.90;;;;;;6214887;23;20012;-86
2022/06/13 21:42:30;;;;;;;12.00;2.95;;;11.90;99.90;;;;;;6371005;22;20025;-87
2022/06/13 21:45:06;;;;;;;12.93;3.33;;;11.90;99.90;;;;;;6306553;22;20016;-87
2022/06/13 21:48:36;;;;;;;10.98;2.67;;;11.90;99.90;;;;;;6275003;22;20019;-86
2022/06/13 21:51:51;;;;;;;13.13;3.10;;;11.70;99.90;;;;;;6274102;22;20020;-89
2022/06/13 21:54:21;;;;;;;8.88;2.97;;;11.80;99.90;;;;;;6248019;22;20019;-88
2022/06/13 21:56:47;;;;;;;15.23;2.90;;;11.70;99.90;;;;;;6247285;22;20020;-87
2022/06/13 21:59:27;;;;;;;12.32;2.90;;;11.30;99.90;;;;;;6279370;22;20002;-87
2022/06/13 22:02:06;;;;;;;10.30;2.70;;;11.70;99.90;;;;;;6274292;22;20057;-88
2022/06/13 22:04:47;;;;;;;10.70;2.80;;;12.40;99.90;;;;;;6275605;22;20020;-87
2022/06/13 22:07:31;;;;;;;11.07;3.38;;;12.60;99.90;;;;;;6274684;22;20016;-87
2022/06/13 22:10:06;;;;;;;;;;;11.10;99.90;;;;;;6279262;22;20020;-87
2022/06/13 22:12:48;;;;;;;9.95;3.10;;;11.50;99.90;;;;;;6273995;22;19957;-88
2022/06/13 22:15:15;;;;;;;8.68;3.30;;;12.30;99.90;;;;;;6276038;22;20045;-87
2022/06/13 22:17:50;;;;;;;12.02;3.10;;;11.50;99.90;;;;;;6277223;22;20015;-88
2022/06/13 22:20:25;;;;;;;9.60;3.20;;;11.90;99.90;;;;;;6277911;22;20051;-87
2022/06/13 22:23:10;;;;;;;8.55;3.00;;;11.40;99.90;;;;;;6249828;22;20337;-88
2022/06/13 22:25:57;;;;;;;10.85;3.20;;;11.40;99.90;;;;;;6277062;22;20012;-86
2022/06/13 22:28:41;;;;;;;12.00;3.20;;;11.30;99.90;;;;;;6278150;22;20440;-86
2022/06/13 22:31:23;;;;;;;11.60;3.10;;;11.90;99.90;;;;;;6250316;22;20020;-85
2022/06/13 22:33:49;;;;;;;11.18;3.20;;;12.40;99.90;;;;;;6275974;22;20471;-86
2022/06/13 22:36:24;;;;;;;10.45;2.92;;;11.50;99.90;;;;;;6277457;22;20019;-86
2022/06/13 22:38:56;;;;;;;10.65;3.05;;;11.10;99.90;;;;;;6275357;22;20463;-86
2022/06/13 22:41:34;;;;;;;9.68;3.05;;;12.20;99.90;;;;;;6277361;22;20022;-86
2022/06/13 22:44:12;;;;;;;11.85;4.13;;;11.40;99.90;;;;;;6283002;22;20024;-86
2022/06/13 22:50:04;;;;;;;11.75;3.20;;;11.10;99.90;;;;;;6308105;22;20019;-88
2022/06/13 22:52:38;;;;;;;13.18;3.80;;;11.20;99.90;;;;;;6308689;22;20019;-87
2022/06/13 22:55:12;;;;;;;12.40;3.83;;;11.10;99.90;;;;;;6307493;22;20102;-86
2022/06/13 22:57:39;;;;;;;12.65;3.58;;;11.80;99.90;;;;;;6280910;22;20011;-87
2022/06/13 23:00:16;;;;;;;17.15;3.53;;;11.10;99.90;;;;;;6306922;22;20058;-86
2022/06/13 23:03:04;;;;;;;14.63;5.53;;;11.00;99.90;;;;;;6307936;22;20015;-86
2022/06/13 23:05:31;;;;;;;11.05;3.40;;;10.80;99.90;;;;;;6308437;22;20164;-86
2022/06/13 23:07:57;;;;;;;11.63;3.53;;;11.80;99.90;;;;;;6279763;22;20020;-87
2022/06/13 23:10:24;;;;;;;13.65;3.75;;;11.00;99.90;;;;;;6280662;22;20007;-86
2022/06/13 23:12:50;;;;;;;11.38;3.20;;;10.90;99.90;;;;;;6308000;22;20022;-87
2022/06/13 23:15:20;;;;;;;11.90;3.60;;;10.90;99.90;;;;;;6307273;22;20082;-87
2022/06/13 23:17:46;;;;;;;11.80;3.60;;;10.80;99.90;;;;;;6307867;22;20086;-87
2022/06/13 23:20:13;;;;;;;9.05;3.28;;;11.00;99.90;;;;;;6280576;22;20451;-87
2022/06/13 23:22:38;;;;;;;10.13;3.47;;;10.70;99.90;;;;;;6279570;22;20034;-87
2022/06/13 23:25:05;;;;;;;11.15;3.53;;;10.70;99.90;;;;;;6307770;22;20427;-87
2022/06/13 23:27:31;;;;;;;13.48;3.47;;;10.70;99.90;;;;;;6280917;22;20046;-87
2022/06/13 23:29:56;;;;;;;15.38;3.90;;;10.60;99.90;;;;;;6279533;22;20020;-87
2022/06/13 23:34:48;;;;;;;10.98;3.55;;;10.60;99.90;;;;;;6371390;22;20019;-87
2022/06/13 23:37:36;;;;;;;12.55;3.40;;;11.60;99.90;;;;;;6342798;22;20014;-87
2022/06/13 23:40:32;;;;;;;11.52;3.50;;;10.30;99.90;;;;;;6342208;22;20443;-87
2022/06/13 23:43:07;;;;;;;11.80;3.70;;;10.30;99.90;;;;;;6341192;22;20025;-86
2022/06/13 23:45:35;;;;;;;13.55;3.35;;;10.70;99.90;;;;;;6370942;22;20010;-86
2022/06/13 23:48:16;;;;;;;12.25;3.60;;;10.30;99.90;;;;;;6342171;22;20029;-86
2022/06/13 23:50:48;;;;;;;11.40;3.40;;;10.70;99.90;;;;;;6341627;22;20334;-88
2022/06/13 23:53:16;;;;;;;15.10;3.78;;;10.90;99.90;;;;;;6372230;22;20019;-87
2022/06/13 23:55:45;;;;;;;12.50;3.60;;;10.10;99.90;;;;;;6370511;22;20085;-86
2022/06/13 23:58:20;;;;;;;11.68;3.90;;;10.10;99.90;;;;;;6369902;22;20021;-86
